2 lipca 2022

Czas Kod Pogoda Temp. Widoczność Sufit Wiatr METAR/SPECI
8:55 am
V
64 °F 6¼ mi+ - 220° 220° 6 kt METAR EHVK 020655Z AUTO 22006KT 180V270 9999 NCD 18/10 Q1022 BLU
8:25 am
V
63 °F 6¼ mi+ - 210° 210° 5 kt METAR EHVK 020625Z AUTO 21005KT 140V270 9999 NCD 17/11 Q1022 BLU
7:55 am
V
61 °F 6¼ mi+ - 220° 220° 4 kt METAR EHVK 020555Z AUTO 22004KT 180V260 9999 SCT067 16/11 Q1022 BLU
7:25 am
V
57 °F 6¼ mi+ - Var Var 3 kt METAR EHVK 020525Z AUTO VRB03KT 9999 FEW058 SCT070 14/11 Q1022 BLU
6:55 am
V
55 °F 6¼ mi+ - Var Var 2 kt METAR EHVK 020455Z AUTO VRB02KT 9999 SCT056 13/11 Q1022 BLU
6:25 am
V
54 °F 6¼ mi+ 5.400 ft 220° 220° 3 kt METAR EHVK 020425Z AUTO 22003KT 170V250 9999 OVC054 12/10 Q1022 BLU
5:55 am
V
54 °F 6¼ mi+ 5.200 ft Var Var 2 kt METAR EHVK 020355Z AUTO VRB02KT 9999 BKN052 12/10 Q1022 BLU
5:25 am
V
54 °F 6¼ mi+ 5.400 ft Var Var 1 kt METAR EHVK 020325Z AUTO VRB01KT 9999 BKN054 BKN068 12/10 Q1021 BLU
4:55 am
V
54 °F 6¼ mi+ - Var Var 2 kt METAR EHVK 020255Z AUTO VRB02KT 9999 NCD 12/10 Q1021 BLU
4:25 am
V
52 °F 6¼ mi+ - Var Var 1 kt METAR EHVK 020225Z AUTO VRB01KT 9999 NCD 11/10 Q1021 BLU
3:55 am
V
54 °F 6¼ mi+ - Var Var 2 kt METAR EHVK 020155Z AUTO VRB02KT 9999 NCD 12/10 Q1021 BLU
3:25 am
V
54 °F 6¼ mi+ - 200° 200° 2 kt METAR EHVK 020125Z AUTO 20002KT 9999 NCD 12/10 Q1021 BLU
2:55 am
V
54 °F 6¼ mi+ - 220° 220° 3 kt METAR EHVK 020055Z AUTO 22003KT 9999 NCD 12/10 Q1021 BLU
2:25 am
V
55 °F 6¼ mi+ - 210° 210° 3 kt METAR EHVK 020025Z AUTO 21003KT 9999 NCD 13/10 Q1021 BLU RMK CB INFO NOT AVBL
1:55 am
V
55 °F 6¼ mi+ - Var Var 2 kt METAR EHVK 012355Z AUTO VRB02KT 9999 NCD 13/11 Q1021 BLU
1:25 am
V
55 °F 6¼ mi+ - Var Var 2 kt METAR EHVK 012325Z AUTO VRB02KT 9999 NCD 13/11 Q1021 BLU
12:55 am
V
55 °F 6¼ mi+ - Var Var 1 kt METAR EHVK 012255Z AUTO VRB01KT 9999 NCD 13/11 Q1021 BLU
12:25 am
V
57 °F 6¼ mi+ - Var Var 1 kt METAR EHVK 012225Z AUTO VRB01KT 9999 NCD 14/11 Q1021 BLU

1 lipca 2022

Czas Kod Pogoda Temp. Widoczność Sufit Wiatr METAR/SPECI
11:55 pm
V
57 °F 6¼ mi+ - 170° 170° 2 kt METAR EHVK 012155Z AUTO 17002KT 9999 FEW058 14/12 Q1021 BLU
11:25 pm
V
55 °F 6¼ mi+ - 160° 160° 1 kt METAR EHVK 012125Z AUTO 16001KT 9999 NCD 13/12 Q1021 BLU
10:55 pm
V
57 °F 6¼ mi+ - 150° 150° 1 kt METAR EHVK 012055Z AUTO 15001KT 9999 NCD 14/12 Q1021 BLU
10:25 pm
V
59 °F 6¼ mi+ - 140° 140° 1 kt METAR EHVK 012025Z AUTO 14001KT 9999 NCD 15/12 Q1020 BLU
9:55 pm
V
61 °F 6¼ mi+ - Var Var 1 kt METAR EHVK 011955Z AUTO VRB01KT 9999 NCD 16/11 Q1020 BLU
9:25 pm
V
63 °F 6¼ mi+ - 250° 250° 3 kt METAR EHVK 011925Z AUTO 25003KT 220V280 9999 NCD 17/11 Q1020 BLU
8:55 pm
V
66 °F 6¼ mi+ 7.200 ft 270° 270° 5 kt METAR EHVK 011855Z AUTO 27005KT 200V320 9999 BKN072 19/11 Q1020 BLU
8:25 pm
V
64 °F 6¼ mi+ 6.300 ft 270° 270° 3 kt METAR EHVK 011825Z AUTO 27003KT 240V310 9999 OVC063 18/11 Q1019 BLU
7:55 pm
V
64 °F 6¼ mi+ 9.700 ft 260° 260° 5 kt METAR EHVK 011755Z AUTO 26005KT 230V310 9999 OVC097 18/11 Q1019 BLU
7:25 pm
V
64 °F 6¼ mi+ - 260° 260° 8 kt METAR EHVK 011725Z AUTO 26008KT 220V300 9999 FEW073 18/10 Q1019 BLU
6:55 pm
V
66 °F 6¼ mi+ 8.200 ft 250° 250° 7 kt METAR EHVK 011655Z AUTO 25007KT 210V290 9999 SCT068 SCT076 BKN082 19/10 Q1019 BLU
6:25 pm
V
64 °F 6¼ mi+ 7.200 ft 260° 260° 8 kt METAR EHVK 011625Z AUTO 26008KT 230V310 9999 OVC072 18/11 Q1019 BLU
5:55 pm
V
64 °F 6¼ mi+ 6.600 ft 280° 280° 10 kt METAR EHVK 011555Z AUTO 28010KT 220V310 9999 FEW051 BKN066 OVC076 18/11 Q1019 BLU
5:25 pm
V
68 °F 6¼ mi+ 8.500 ft 270° 270° 9 kt METAR EHVK 011525Z AUTO 27009KT 230V300 9999 SCT048 SCT058 BKN085 20/09 Q1018 BLU
4:55 pm
V
68 °F 6¼ mi+ 7.100 ft 230° 230° 11 kt METAR EHVK 011455Z AUTO 23011KT 200V280 9999 SCT047 BKN071 OVC079 20/10 Q1018 BLU
4:25 pm
V
68 °F 6¼ mi+ 4.400 ft 230° 230° 9 kt METAR EHVK 011425Z AUTO 23009KT 200V270 9999 BKN044 BKN051 BKN061 20/10 Q1018 BLU
3:55 pm
V
70 °F 6¼ mi+ - 220° 220° 11 kt METAR EHVK 011355Z AUTO 22011KT 190V280 9999 FEW077 21/10 Q1018 BLU
3:25 pm
V
68 °F 6¼ mi+ - 230° 230° 14 kt METAR EHVK 011325Z AUTO 23014KT 190V280 9999 FEW086 20/09 Q1018 BLU
2:55 pm
V
68 °F 6¼ mi+ 8.000 ft 230° 230° 13 kt METAR EHVK 011255Z AUTO 23013KT 160V260 9999 FEW046 BKN080 20/09 Q1018 BLU
2:25 pm
V
70 °F 6¼ mi+ 4.100 ft 230° 230° 12 - 22 kt METAR EHVK 011225Z AUTO 23012G22KT 190V270 9999 BKN041 BKN046 BKN051 21/10 Q1018 BLU
1:55 pm
V
66 °F 6¼ mi+ - 250° 250° 10 kt METAR EHVK 011155Z AUTO 25010KT 180V290 9999 SCT039 SCT044 19/10 Q1018 BLU
1:25 pm
V
66 °F 6¼ mi+ - 230° 230° 12 kt METAR EHVK 011125Z AUTO 23012KT 190V280 9999 FEW041 SCT045 19/10 Q1018 BLU
12:55 pm
V
66 °F 6¼ mi+ - 230° 230° 15 kt METAR EHVK 011055Z AUTO 23015KT 210V280 9999 FEW042 19/09 Q1018 BLU
12:25 pm
V
68 °F 6¼ mi+ 3.400 ft 230° 230° 12 kt METAR EHVK 011025Z AUTO 23012KT 160V260 9999 BKN034 BKN041 20/11 Q1018 BLU
11:55 am
V
64 °F 6¼ mi+ 24.000 ft 230° 230° 12 kt METAR EHVK 010955Z AUTO 23012KT 180V270 9999 FEW036 OVC240 18/09 Q1017 BLU
11:25 am
V
64 °F 6¼ mi+ - 240° 240° 13 kt METAR EHVK 010925Z AUTO 24013KT 200V270 9999 FEW038 18/10 Q1017 BLU
10:55 am
V
63 °F 6¼ mi+ - 220° 220° 12 kt METAR EHVK 010855Z AUTO 22012KT 200V270 9999 FEW026 SCT240 17/10 Q1017 BLU
10:43 am
V
63 °F 6¼ mi+ - 230° 230° 9 kt METAR EHVK 010843Z AUTO 23009KT 180V260 9999 FEW022 SCT250 17/11 Q1017 BLU BECMG SCT020
10:38 am
V
63 °F 6¼ mi+ - 240° 240° 8 kt METAR EHVK 010838Z AUTO 24008KT 180V260 9999 SCT021 SCT028 17/12 Q1017 WHT BECMG SCT020
10:25 am
V
61 °F 6¼ mi+ 22.000 ft 220° 220° 9 kt METAR EHVK 010825Z AUTO 22009KT 180V270 9999 FEW020 OVC220 16/11 Q1017 BLU BECMG SCT020
9:55 am
V
61 °F 6¼ mi+ 22.000 ft 230° 230° 10 kt METAR EHVK 010755Z AUTO 23010KT 210V290 9999 OVC220 16/11 Q1017 BLU BECMG SCT020
9:25 am
V
59 °F 6¼ mi+ - 230° 230° 8 kt METAR EHVK 010725Z AUTO 23008KT 170V270 9999 FEW014 SCT230 15/11 Q1016 BLU BECMG SCT020
9:07 am
V
61 °F 6¼ mi+ - 230° 230° 8 kt METAR EHVK 010707Z AUTO 23008KT 190V270 9999 FEW010 16/13 Q1016 BLU BECMG SCT020
8:55 am
M
57 °F 6¼ mi+ 1.000 ft 220° 220° 8 kt METAR EHVK 010655Z AUTO 22008KT 180V260 9999 SCT008 BKN010 OVC210 14/12 Q1016 GRN BECMG SCT020
8:44 am
M
59 °F 6¼ mi+ 1.000 ft 220° 220° 8 kt METAR EHVK 010644Z AUTO 22008KT 180V260 9999 SCT008 BKN010 OVC200 15/12 Q1016 GRN BECMG SCT020
8:25 am
I
57 °F 6¼ mi+ 800 ft 230° 230° 8 kt METAR EHVK 010625Z AUTO 23008KT 150V280 9999 FEW007 BKN008 BKN010 14/12 Q1016 GRN
8:19 am
I
57 °F 6¼ mi+ 800 ft 230° 230° 8 kt METAR EHVK 010619Z AUTO 23008KT 200V270 9999 SCT007 BKN008 OVC010 14/12 Q1016 GRN
8:09 am
I
57 °F 5⅝ mi 800 ft 220° 220° 6 kt METAR EHVK 010609Z AUTO 22006KT 170V270 9000 BR SCT006 BKN008 BKN009 14/12 Q1016 YLO
7:59 am
I
57 °F 5 mi 900 ft 220° 220° 6 kt METAR EHVK 010559Z AUTO 22006KT 190V270 8000 BR FEW006 SCT007 BKN009 14/12 Q1016 GRN
7:55 am
V
57 °F 5 mi 16.000 ft 230° 230° 7 kt METAR EHVK 010555Z AUTO 23007KT 190V270 8000 BR FEW007 SCT008 OVC160 14/12 Q1016 GRN
7:29 am
V
55 °F 5⅝ mi 18.000 ft 220° 220° 10 kt METAR EHVK 010529Z AUTO 22010KT 200V260 9000 BR FEW008 OVC180 13/12 Q1016 BLU
7:25 am
V
55 °F 5⅝ mi 18.000 ft 220° 220° 10 kt METAR EHVK 010525Z AUTO 22010KT 190V260 9000 BR FEW006 SCT008 OVC180 13/12 Q1016 GRN
7:08 am
I
55 °F 5⅝ mi 800 ft 220° 220° 8 kt METAR EHVK 010508Z AUTO 22008KT 190V250 9000 BR FEW005 SCT007 BKN008 13/12 Q1016 GRN
6:57 am
I
55 °F 5 mi 700 ft 220° 220° 7 kt METAR EHVK 010457Z AUTO 22007KT 180V250 8000 BR FEW005 BKN007 OVC008 13/12 Q1016 GRN
6:55 am
I
57 °F 5⅝ mi 800 ft 220° 220° 7 kt METAR EHVK 010455Z AUTO 22007KT 9000 BR FEW006 BKN008 OVC009 14/12 Q1016 GRN
6:35 am
I
55 °F 5⅝ mi 700 ft 200° 200° 5 kt METAR EHVK 010435Z AUTO 20005KT 170V240 9000 BR SCT006 BKN007 OVC008 13/12 Q1016 YLO
6:29 am
I
55 °F 5 mi 800 ft 190° 190° 6 kt METAR EHVK 010429Z AUTO 19006KT 160V240 8000 BR SCT006 OVC008 13/12 Q1016 YLO
6:25 am
I
55 °F 5 mi 800 ft 190° 190° 6 kt METAR EHVK 010425Z AUTO 19006KT 160V220 8000 BR FEW006 BKN008 OVC009 13/12 Q1016 GRN
5:55 am
I
55 °F 5⅝ mi 900 ft 190° 190° 5 kt METAR EHVK 010355Z AUTO 19005KT 150V230 9000 BR FEW006 SCT008 OVC009 13/12 Q1016 GRN
5:39 am
I
55 °F 5⅝ mi 800 ft 190° 190° 5 kt METAR EHVK 010339Z AUTO 19005KT 160V240 9000 BR SCT006 BKN008 OVC009 13/12 Q1016 YLO
5:25 am
I
55 °F 5⅝ mi 800 ft 210° 210° 6 kt METAR EHVK 010325Z AUTO 21006KT 180V240 9000 BR SCT007 BKN008 OVC010 13/12 Q1016 GRN
5:00 am
I
55 °F 5⅝ mi 700 ft 240° 240° 7 kt METAR EHVK 010300Z AUTO 24007KT 200V260 9000 BR FEW006 BKN007 BKN009 13/12 Q1015 GRN
4:55 am
I
55 °F 5⅝ mi 600 ft 230° 230° 7 kt METAR EHVK 010255Z AUTO 23007KT 210V270 9000 BR BKN006 OVC007 13/12 Q1015 YLO
4:32 am
I
55 °F 5 mi 700 ft 220° 220° 7 kt METAR EHVK 010232Z AUTO 22007KT 190V260 8000 BR FEW006 BKN007 OVC008 13/12 Q1015 GRN
4:25 am
I
55 °F 5 mi 700 ft 230° 230° 7 kt METAR EHVK 010225Z AUTO 23007KT 200V260 8000 BR SCT006 BKN007 OVC009 13/12 Q1015 YLO
4:08 am
I
55 °F 4⅜ mi 800 ft 230° 230° 8 kt METAR EHVK 010208Z AUTO 23008KT 200V270 7000 BR FEW005 SCT007 BKN008 13/12 Q1015 GRN
3:55 am
I
55 °F 4⅜ mi 600 ft 230° 230° 8 kt METAR EHVK 010155Z AUTO 23008KT 190V270 7000 BR SCT005 BKN006 OVC007 13/12 Q1015 YLO
3:40 am
I
55 °F 4⅜ mi 500 ft 230° 230° 8 kt METAR EHVK 010140Z AUTO 23008KT 200V260 7000 BR BKN005 OVC006 13/12 Q1015 YLO
3:38 am
I
55 °F 5 mi 500 ft 230° 230° 8 kt METAR EHVK 010138Z AUTO 23008KT 180V260 8000 BR BKN005 OVC006 13/12 Q1015 YLO
3:25 am
I
55 °F 4⅜ mi 500 ft 220° 220° 7 kt METAR EHVK 010125Z AUTO 22007KT 190V260 7000 BR BKN005 OVC006 13/12 Q1015 YLO
3:15 am
I
55 °F 5 mi 500 ft 230° 230° 6 kt METAR EHVK 010115Z AUTO 23006KT 160V270 8000 BR BKN005 OVC006 13/13 Q1015 YLO
3:06 am
I
55 °F 4⅜ mi 700 ft 230° 230° 7 kt METAR EHVK 010106Z AUTO 23007KT 200V260 7000 BR SCT006 BKN007 OVC008 13/12 Q1015 YLO
2:59 am
I
55 °F 4⅜ mi 700 ft 230° 230° 7 kt METAR EHVK 010059Z AUTO 23007KT 190V260 7000 BR FEW006 BKN007 OVC008 13/12 Q1014 GRN
2:55 am
I
55 °F 4⅜ mi 700 ft 230° 230° 7 kt METAR EHVK 010055Z AUTO 23007KT 190V260 7000 BR SCT006 BKN007 BKN008 13/12 Q1014 YLO
2:25 am
I
57 °F 3¾ mi 900 ft 230° 230° 8 kt METAR EHVK 010025Z AUTO 23008KT 190V250 6000 BR FEW007 BKN009 BKN011 14/13 Q1015 GRN
2:15 am
I
57 °F 3⅛ mi 900 ft 220° 220° 8 kt METAR EHVK 010015Z AUTO 22008KT 190V250 5000 BR FEW006 SCT007 BKN009 14/13 Q1015 GRN
1:59 am
I
57 °F 3 mi 800 ft 230° 230° 6 kt METAR EHVK 302359Z AUTO 23006KT 190V250 4800 BR FEW005/// SCT007/// BKN008/// 14/13 Q1015 GRN
1:55 am
I
57 °F 2¾ mi 2.800 ft 230° 230° 6 kt METAR EHVK 302355Z AUTO 23006KT 4500 BR FEW005 SCT007 BKN028 14/13 Q1015 GRN
1:34 am
I
57 °F 3 mi 1.800 ft 240° 240° 7 kt METAR EHVK 302334Z AUTO 24007KT 210V270 4900 BR FEW006 SCT007 BKN018 14/13 Q1015 GRN
1:25 am
I
57 °F 3⅛ mi 900 ft 230° 230° 9 kt METAR EHVK 302325Z AUTO 23009KT 200V270 5000 BR FEW006 SCT008 BKN009 14/13 Q1015 GRN
12:58 am
I
57 °F 4⅜ mi 800 ft 230° 230° 9 kt METAR EHVK 302258Z AUTO 23009KT 190V270 7000 BR FEW006 SCT007 BKN008 14/13 Q1015 GRN
12:55 am
I
57 °F 5 mi 700 ft 230° 230° 8 kt METAR EHVK 302255Z AUTO 23008KT 190V270 8000 BR FEW006 BKN007 OVC008 14/13 Q1015 GRN
12:25 am
M
57 °F 6¼ mi+ 1.300 ft 240° 240° 7 kt METAR EHVK 302225Z AUTO 24007KT 190V260 9999 FEW008 SCT011 BKN013 14/13 Q1015 GRN
12:13 am
M
57 °F 6¼ mi+ 1.400 ft 230° 230° 8 kt METAR EHVK 302213Z AUTO 23008KT 190V270 9999 SCT006 SCT011 BKN014 14/13 Q1015 YLO
12:11 am
M
57 °F 6¼ mi+ 1.800 ft 230° 230° 7 kt METAR EHVK 302211Z AUTO 23007KT 210V270 9999 FEW006 SCT014 BKN018 14/13 Q1015 GRN

30 czerwca 2022

Czas Kod Pogoda Temp. Widoczność Sufit Wiatr METAR/SPECI
11:55 pm
M
57 °F 6¼ mi+ 2.100 ft 240° 240° 7 kt METAR EHVK 302155Z AUTO 24007KT 9999 FEW006 BKN021 OVC025 14/13 Q1015 WHT
11:25 pm
I
57 °F 6¼ mi+ 500 ft 240° 240° 6 kt METAR EHVK 302125Z AUTO 24006KT 220V280 9999 -RA FEW004 BKN005 OVC007 14/14 Q1014 YLO
11:17 pm
I
57 °F 6¼ mi+ 500 ft 240° 240° 5 kt METAR EHVK 302117Z AUTO 24005KT 9999 FEW004 BKN005 OVC007 14/14 Q1014 YLO
11:13 pm
I
57 °F 6¼ mi+ 700 ft 250° 250° 5 kt METAR EHVK 302113Z AUTO 25005KT 220V280 9999 FEW005 SCT006 BKN007 14/13 Q1014 YLO
11:09 pm
M
57 °F 6¼ mi+ 2.200 ft 250° 250° 5 kt METAR EHVK 302109Z AUTO 25005KT 9999 FEW007 SCT012 OVC022 14/13 Q1014 GRN
11:02 pm
M
57 °F 6¼ mi+ 2.200 ft 260° 260° 4 kt METAR EHVK 302102Z AUTO 26004KT 230V290 9999 -DZ FEW007 FEW015CB BKN022 OVC062 14/13 Q1014 WHT
10:55 pm
M
57 °F 6¼ mi+ 1.000 ft 260° 260° 4 kt METAR EHVK 302055Z AUTO 26004KT 230V310 9999 -RADZ FEW006 SCT007 BKN010 FEW015CB 14/13 Q1014 RERA REDZ GRN
10:43 pm
V
57 °F 6¼ mi+ 5.000 ft 270° 270° 3 kt METAR EHVK 302043Z AUTO 27003KT 210V320 9999 -SHRA FEW006 FEW015CB SCT027 BKN050 14/13 Q1013 BLU
10:34 pm
I
57 °F 6¼ mi+ 700 ft 230° 230° 4 kt METAR EHVK 302034Z AUTO 23004KT 210V280 9999 -RA FEW006 BKN007 BKN008 FEW015CB 14/14 Q1014 GRN
10:26 pm
I
57 °F 6¼ mi+ 800 ft 260° 260° 4 kt METAR EHVK 302026Z AUTO 26004KT 220V300 9999 FEW005 SCT007 BKN008 14/13 Q1013 GRN
10:25 pm
V
57 °F 6¼ mi+ 5.800 ft 270° 270° 5 kt METAR EHVK 302025Z AUTO 27005KT 230V300 9999 FEW005 SCT007 OVC058 14/13 Q1013 GRN
10:15 pm
V
57 °F 6¼ mi+ 5.700 ft 270° 270° 4 kt METAR EHVK 302015Z AUTO 27004KT 230V330 9999 FEW006 SCT007 OVC057 14/13 Q1013 GRN
10:08 pm
V
57 °F 6¼ mi+ 5.200 ft 280° 280° 4 kt METAR EHVK 302008Z AUTO 28004KT 250V330 9999 FEW006 BKN052 OVC058 14/13 Q1013 BLU
9:55 pm
I
57 °F 6¼ mi+ 800 ft 260° 260° 5 kt METAR EHVK 301955Z AUTO 26005KT 230V320 9999 FEW005 SCT007 BKN008 14/13 Q1013 GRN
9:39 pm
V
57 °F 6¼ mi+ 4.500 ft 280° 280° 4 kt METAR EHVK 301939Z AUTO 28004KT 230V320 9999 -RA FEW005 FEW015CB SCT040 BKN045 14/13 Q1013 BLU
9:25 pm
M
57 °F 3⅛ mi 4.300 ft 280° 280° 5 kt METAR EHVK 301925Z AUTO 28005KT 240V330 5000 RA FEW005 SCT015CB BKN043 OVC051 14/13 Q1013 WHT
9:17 pm
M
57 °F 3¾ mi 1.500 ft 270° 270° 6 kt METAR EHVK 301917Z AUTO 27006KT 230V320 6000 +RA FEW007 BKN015CB OVC052 14/13 Q1013 WHT
9:09 pm
M
57 °F 3⅛ mi 1.500 ft 280° 280° 5 kt METAR EHVK 301909Z AUTO 28005KT 250V360 5000 SHRA BKN015CB BKN041 BKN047 OVC053 14/13 Q1013 WHT
8:55 pm
V
57 °F 6¼ mi+ 4.600 ft 280° 280° 7 kt METAR EHVK 301855Z AUTO 28007KT 250V330 9999 SHRA FEW007 SCT015CB BKN046 14/13 Q1013 WHT
8:40 pm
I
57 °F 6¼ mi+ 700 ft 270° 270° 9 kt METAR EHVK 301840Z AUTO 27009KT 240V330 9999 -SHRA SCT006 BKN007 BKN008 FEW015CB 14/13 Q1013 YLO
8:26 pm
I
57 °F 6¼ mi+ 600 ft 270° 270° 9 kt METAR EHVK 301826Z AUTO 27009KT 230V330 9999 -RADZ FEW005 BKN006 BKN008 14/13 Q1012 YLO
8:25 pm
I
57 °F 6¼ mi+ 800 ft 270° 270° 8 kt METAR EHVK 301825Z AUTO 27008KT 240V330 9999 DZ SCT006 BKN008 BKN055 14/13 Q1012 YLO
7:55 pm
V
57 °F 6¼ mi+ 9.600 ft 290° 290° 9 kt METAR EHVK 301755Z AUTO 29009KT 240V350 9999 -DZ FEW015CB SCT078 BKN096 14/13 Q1012 REDZ BLU
7:44 pm
V
57 °F 6¼ mi+ 5.500 ft 260° 260° 13 kt METAR EHVK 301744Z AUTO 26013KT 230V310 9999 DZ TS FEW008 FEW015CB SCT025 OVC055 14/12 Q1013 BLU
7:33 pm
V
57 °F 6¼ mi+ 5.800 ft 280° 280° 12 kt METAR EHVK 301733Z AUTO 28012KT 240V340 9999 -DZ TS FEW009 SCT010 FEW015CB BKN058 14/13 Q1012 GRN
7:25 pm
V
59 °F 6¼ mi+ 8.700 ft 270° 270° 14 kt METAR EHVK 301725Z AUTO 27014KT 240V320 9999 -TSRA -DZ FEW009 FEW015CB SCT067 OVC087 15/13 Q1012 BLU
7:16 pm
V
59 °F 6¼ mi+ 4.100 ft 280° 280° 13 kt METAR EHVK 301716Z AUTO 28013KT 240V320 9999 -TSRA FEW011 FEW015CB SCT034 BKN041 15/13 Q1012 BLU
7:08 pm
V
59 °F 6¼ mi+ 4.600 ft 270° 270° 10 kt METAR EHVK 301708Z AUTO 27010KT 240V320 9999 -TSRA SCT015CB BKN046 BKN052 15/14 Q1012 WHT
6:55 pm
M
61 °F 3⅛ mi 1.700 ft 250° 250° 20 - 33 kt METAR EHVK 301655Z AUTO 25020G33KT 220V290 5000 +TSRA SCT015CB BKN017 BKN020 OVC024 16/14 Q1012 WHT
6:25 pm
V
68 °F 6¼ mi+ 3.500 ft 290° 290° 14 kt METAR EHVK 301625Z AUTO 29014KT 250V330 9999 OVC035 20/15 Q1010 BLU
5:55 pm
V
73 °F 6¼ mi+ - 290° 290° 9 kt METAR EHVK 301555Z AUTO 29009KT 250V350 9999 FEW034 23/16 Q1010 BLU
5:25 pm
V
75 °F 6¼ mi+ 13.000 ft 290° 290° 7 kt METAR EHVK 301525Z AUTO 29007KT 260V340 9999 BKN130 24/16 Q1010 BLU
4:55 pm
V
77 °F 6¼ mi+ 14.000 ft 290° 290° 6 kt METAR EHVK 301455Z AUTO 29006KT 250V360 9999 BKN140 25/16 Q1010 BLU
4:25 pm
V
77 °F 6¼ mi+ 14.000 ft 290° 290° 6 kt METAR EHVK 301425Z AUTO 29006KT 280V020 9999 BKN140 25/16 Q1010 BLU
4:06 pm
V
77 °F 6¼ mi+ 14.000 ft 330° 330° 5 kt METAR EHVK 301406Z AUTO 33005KT 250V350 9999 OVC140 25/16 Q1010 BLU NOSIG
3:55 pm
V
75 °F 6¼ mi+ 14.000 ft 340° 340° 5 kt METAR EHVK 301355Z AUTO 34005KT 270V050 9999 OVC140 24/15 Q1010 BLU NOSIG
3:25 pm
V
75 °F 6¼ mi+ 14.000 ft 360° 360° 5 kt METAR EHVK 301325Z AUTO 36005KT 290V030 9999 OVC140 24/15 Q1010 BLU NOSIG
2:55 pm
V
75 °F 6¼ mi+ 13.000 ft 310° 310° 5 kt METAR EHVK 301255Z AUTO 31005KT 270V010 9999 OVC130 24/15 Q1010 BLU NOSIG
2:25 pm
V
73 °F 6¼ mi+ 14.000 ft Var Var 6 kt METAR EHVK 301225Z AUTO VRB06KT 9999 SCT035 OVC140 23/15 Q1011 BLU NOSIG
1:55 pm
V
75 °F 6¼ mi+ 16.000 ft 270° 270° 6 kt METAR EHVK 301155Z AUTO 27006KT 240V340 9999 OVC160 24/15 Q1011 BLU NOSIG
1:25 pm
V
77 °F 6¼ mi+ 17.000 ft 320° 320° 5 kt METAR EHVK 301125Z AUTO 32005KT 220V360 9999 OVC170 25/17 Q1011 BLU NOSIG
12:55 pm
V
75 °F 6¼ mi+ 7.100 ft 280° 280° 6 kt METAR EHVK 301055Z AUTO 28006KT 250V020 9999 BKN071 BKN190 24/16 Q1012 BLU NOSIG
12:25 pm
V
75 °F 6¼ mi+ 20.000 ft 320° 320° 4 kt METAR EHVK 301025Z AUTO 32004KT 230V020 9999 BKN200 OVC340 24/16 Q1012 BLU NOSIG
11:55 am
V
73 °F 6¼ mi+ 33.000 ft 300° 300° 5 kt METAR EHVK 300955Z AUTO 30005KT 200V340 9999 OVC330 23/16 Q1012 BLU NOSIG
11:25 am
V
73 °F 6¼ mi+ 34.000 ft 270° 270° 6 kt METAR EHVK 300925Z AUTO 27006KT 210V350 9999 OVC340 23/15 Q1011 BLU NOSIG
10:55 am
V
72 °F 6¼ mi+ 34.000 ft 280° 280° 6 kt METAR EHVK 300855Z AUTO 28006KT 230V320 9999 OVC340 22/16 Q1011 BLU NOSIG
10:25 am
V
72 °F 6¼ mi+ 34.000 ft 260° 260° 6 kt METAR EHVK 300825Z AUTO 26006KT 230V320 9999 BKN340 22/16 Q1012 BLU NOSIG
9:55 am
V
70 °F 6¼ mi+ 35.000 ft 270° 270° 7 kt METAR EHVK 300755Z AUTO 27007KT 240V320 9999 BKN350 21/16 Q1011 BLU NOSIG
9:25 am
V
70 °F 6¼ mi+ - 240° 240° 7 kt METAR EHVK 300725Z AUTO 24007KT 210V330 9999 FEW350 21/17 Q1011 BLU NOSIG
8:55 am
V
68 °F 6¼ mi+ - 270° 270° 6 kt METAR EHVK 300655Z AUTO 27006KT 210V300 9999 FEW290 20/16 Q1011 BLU NOSIG
8:25 am
V
68 °F 6¼ mi+ - 240° 240° 6 kt METAR EHVK 300625Z AUTO 24006KT 190V260 9999 NCD 20/16 Q1011 BLU NOSIG
7:56 am
V
66 °F 6¼ mi+ - 240° 240° 7 kt METAR EHVK 300556Z AUTO 24007KT 200V260 9999 NCD 19/16 Q1010 BLU NOSIG
7:55 am
V
66 °F 6¼ mi+ - 240° 240° 8 kt METAR EHVK 300555Z AUTO 24008KT 200V270 9999 NCD 19/16 Q1010 BLU
7:25 am
V
66 °F 6¼ mi+ - 220° 220° 6 kt METAR EHVK 300525Z AUTO 22006KT 160V250 9999 NCD 19/15 Q1010 BLU
6:55 am
V
64 °F 6¼ mi+ - Var Var 2 kt METAR EHVK 300455Z AUTO VRB02KT 9999 NCD 18/15 Q1010 BLU
Starsze dane

Pobierz naszą aplikację

Łatwy dostęp do całej pogody lotniczej na telefonie komórkowym i tablecie.
Z wieloma funkcjami niedostępnymi na stronie internetowej, takimi jak wsparcie offline i osobista lista lotnisk.

My i osoby trzecie śledzimy twoje zachowanie w internecie na naszej stronie za pomocą plików cookie. Jeśli kontynuujesz, zakładamy, że zgadzasz się z naszą polityką plików cookie. Dowiedz się więcej